sensor_id;sensor_type;location;lat;lon;timestamp;temperature;humidity
2282;DHT22;27486;48.77806476;9.16920056;2022-08-02T00:01:35;21.50;97.80
2282;DHT22;27486;48.77806476;9.16920056;2022-08-02T00:04:20;21.50;97.90
2282;DHT22;27486;48.77806476;9.16920056;2022-08-02T00:07:04;21.60;97.70
2282;DHT22;27486;48.77806476;9.16920056;2022-08-02T00:09:48;21.60;97.70
2282;DHT22;27486;48.77806476;9.16920056;2022-08-02T00:12:33;21.50;97.80
2282;DHT22;27486;48.77806476;9.16920056;2022-08-02T00:15:17;21.50;98.30
2282;DHT22;27486;48.77806476;9.16920056;2022-08-02T00:18:01;21.50;98.50
2282;DHT22;27486;48.77806476;9.16920056;2022-08-02T00:20:45;21.50;98.50
2282;DHT22;27486;48.77806476;9.16920056;2022-08-02T00:23:29;21.50;98.80
2282;DHT22;27486;48.77806476;9.16920056;2022-08-02T00:26:13;21.40;99.40
2282;DHT22;27486;48.77806476;9.16920056;2022-08-02T00:28:57;21.30;99.90
2282;DHT22;27486;48.77806476;9.16920056;2022-08-02T00:31:41;21.40;99.90
2282;DHT22;27486;48.77806476;9.16920056;2022-08-02T00:34:25;21.30;99.90
2282;DHT22;27486;48.77806476;9.16920056;2022-08-02T00:37:09;21.30;99.90
2282;DHT22;27486;48.77806476;9.16920056;2022-08-02T00:39:53;21.30;99.90
2282;DHT22;27486;48.77806476;9.16920056;2022-08-02T00:42:37;21.30;99.90
2282;DHT22;27486;48.77806476;9.16920056;2022-08-02T00:45:21;21.30;99.90
2282;DHT22;27486;48.77806476;9.16920056;2022-08-02T00:48:07;21.30;99.90
2282;DHT22;27486;48.77806476;9.16920056;2022-08-02T00:50:51;21.30;99.90
2282;DHT22;27486;48.77806476;9.16920056;2022-08-02T00:53:36;21.30;99.90
2282;DHT22;27486;48.77806476;9.16920056;2022-08-02T00:56:19;21.40;99.90
2282;DHT22;27486;48.77806476;9.16920056;2022-08-02T00:59:04;21.30;99.90
2282;DHT22;27486;48.77806476;9.16920056;2022-08-02T01:01:48;21.30;99.90
2282;DHT22;27486;48.77806476;9.16920056;2022-08-02T01:04:32;21.20;99.90
2282;DHT22;27486;48.77806476;9.16920056;2022-08-02T01:07:17;21.20;99.90
2282;DHT22;27486;48.77806476;9.16920056;2022-08-02T01:10:01;21.30;99.90
2282;DHT22;27486;48.77806476;9.16920056;2022-08-02T01:12:46;21.30;99.90
2282;DHT22;27486;48.77806476;9.16920056;2022-08-02T01:15:36;21.30;99.90
2282;DHT22;27486;48.77806476;9.16920056;2022-08-02T01:18:28;21.40;99.90
2282;DHT22;27486;48.77806476;9.16920056;2022-08-02T01:27:19;21.30;99.90
2282;DHT22;27486;48.77806476;9.16920056;2022-08-02T01:30:06;21.30;99.70
2282;DHT22;27486;48.77806476;9.16920056;2022-08-02T01:32:54;21.30;99.50
2282;DHT22;27486;48.77806476;9.16920056;2022-08-02T01:35:43;21.30;99.50
2282;DHT22;27486;48.77806476;9.16920056;2022-08-02T01:38:34;21.40;99.30
2282;DHT22;27486;48.77806476;9.16920056;2022-08-02T01:41:24;21.40;98.90
2282;DHT22;27486;48.77806476;9.16920056;2022-08-02T01:44:11;21.40;98.80
2282;DHT22;27486;48.77806476;9.16920056;2022-08-02T01:47:02;21.40;98.70
2282;DHT22;27486;48.77806476;9.16920056;2022-08-02T01:49:49;21.30;98.80
2282;DHT22;27486;48.77806476;9.16920056;2022-08-02T01:52:36;21.40;98.80
2282;DHT22;27486;48.77806476;9.16920056;2022-08-02T01:55:34;21.40;98.60
2282;DHT22;27486;48.77806476;9.16920056;2022-08-02T01:58:23;21.40;98.60
2282;DHT22;27486;48.77806476;9.16920056;2022-08-02T02:01:09;21.30;98.40
2282;DHT22;27486;48.77806476;9.16920056;2022-08-02T02:03:54;21.20;98.60
2282;DHT22;27486;48.77806476;9.16920056;2022-08-02T02:06:39;21.20;99.10
2282;DHT22;27486;48.77806476;9.16920056;2022-08-02T02:09:27;21.10;98.80
2282;DHT22;27486;48.77806476;9.16920056;2022-08-02T02:12:13;21.00;99.30
2282;DHT22;27486;48.77806476;9.16920056;2022-08-02T02:15:01;20.90;99.60
2282;DHT22;27486;48.77806476;9.16920056;2022-08-02T02:17:46;21.00;99.60
2282;DHT22;27486;48.77806476;9.16920056;2022-08-02T02:20:33;20.90;99.80
2282;DHT22;27486;48.77806476;9.16920056;2022-08-02T02:23:17;20.90;99.60
2282;DHT22;27486;48.77806476;9.16920056;2022-08-02T02:26:03;20.90;99.70
2282;DHT22;27486;48.77806476;9.16920056;2022-08-02T02:28:48;21.00;99.60
2282;DHT22;27486;48.77806476;9.16920056;2022-08-02T02:31:35;21.00;99.30
2282;DHT22;27486;48.77806476;9.16920056;2022-08-02T02:34:32;21.00;99.20
2282;DHT22;27486;48.77806476;9.16920056;2022-08-02T02:37:22;21.10;99.10
2282;DHT22;27486;48.77806476;9.16920056;2022-08-02T02:40:08;21.10;99.10
2282;DHT22;27486;48.77806476;9.16920056;2022-08-02T02:42:53;21.10;99.00
2282;DHT22;27486;48.77806476;9.16920056;2022-08-02T02:45:39;21.10;99.10
2282;DHT22;27486;48.77806476;9.16920056;2022-08-02T02:48:26;21.10;99.10
2282;DHT22;27486;48.77806476;9.16920056;2022-08-02T02:51:10;21.00;99.20
2282;DHT22;27486;48.77806476;9.16920056;2022-08-02T02:53:55;21.00;99.20
2282;DHT22;27486;48.77806476;9.16920056;2022-08-02T02:56:41;20.90;99.40
2282;DHT22;27486;48.77806476;9.16920056;2022-08-02T02:59:26;21.00;99.20
2282;DHT22;27486;48.77806476;9.16920056;2022-08-02T03:02:11;21.00;99.10
2282;DHT22;27486;48.77806476;9.16920056;2022-08-02T03:04:57;21.00;99.10
2282;DHT22;27486;48.77806476;9.16920056;2022-08-02T03:07:45;20.90;99.10
2282;DHT22;27486;48.77806476;9.16920056;2022-08-02T03:10:29;20.90;98.90
2282;DHT22;27486;48.77806476;9.16920056;2022-08-02T03:13:15;20.90;99.00
2282;DHT22;27486;48.77806476;9.16920056;2022-08-02T03:16:00;20.90;99.00
2282;DHT22;27486;48.77806476;9.16920056;2022-08-02T03:18:45;20.90;99.00
2282;DHT22;27486;48.77806476;9.16920056;2022-08-02T03:21:29;20.90;99.00
2282;DHT22;27486;48.77806476;9.16920056;2022-08-02T03:24:13;20.90;98.90
2282;DHT22;27486;48.77806476;9.16920056;2022-08-02T03:26:57;20.80;98.90
2282;DHT22;27486;48.77806476;9.16920056;2022-08-02T03:29:41;20.80;99.00
2282;DHT22;27486;48.77806476;9.16920056;2022-08-02T03:32:26;20.80;98.90
2282;DHT22;27486;48.77806476;9.16920056;2022-08-02T03:35:13;20.80;98.80
2282;DHT22;27486;48.77806476;9.16920056;2022-08-02T03:37:58;20.70;98.80
2282;DHT22;27486;48.77806476;9.16920056;2022-08-02T03:40:44;20.70;98.80
2282;DHT22;27486;48.77806476;9.16920056;2022-08-02T03:43:29;20.80;98.70
2282;DHT22;27486;48.77806476;9.16920056;2022-08-02T03:46:16;20.80;98.30
2282;DHT22;27486;48.77806476;9.16920056;2022-08-02T03:49:00;20.90;98.20
2282;DHT22;27486;48.77806476;9.16920056;2022-08-02T03:51:45;20.80;98.30
2282;DHT22;27486;48.77806476;9.16920056;2022-08-02T03:54:30;20.70;98.60
2282;DHT22;27486;48.77806476;9.16920056;2022-08-02T03:57:15;20.80;98.60
2282;DHT22;27486;48.77806476;9.16920056;2022-08-02T03:59:59;20.80;98.50
2282;DHT22;27486;48.77806476;9.16920056;2022-08-02T04:02:43;20.80;98.40
2282;DHT22;27486;48.77806476;9.16920056;2022-08-02T04:05:27;20.80;98.30
2282;DHT22;27486;48.77806476;9.16920056;2022-08-02T04:08:11;20.80;98.30
2282;DHT22;27486;48.77806476;9.16920056;2022-08-02T04:10:55;20.70;98.30
2282;DHT22;27486;48.77806476;9.16920056;2022-08-02T04:14:00;20.70;98.30
2282;DHT22;27486;48.77806476;9.16920056;2022-08-02T04:16:49;20.70;98.30
2282;DHT22;27486;48.77806476;9.16920056;2022-08-02T04:19:40;20.60;98.50
2282;DHT22;27486;48.77806476;9.16920056;2022-08-02T04:22:29;20.70;98.50
2282;DHT22;27486;48.77806476;9.16920056;2022-08-02T04:25:15;20.80;98.40
2282;DHT22;27486;48.77806476;9.16920056;2022-08-02T04:28:00;20.90;98.30
2282;DHT22;27486;48.77806476;9.16920056;2022-08-02T04:30:49;21.00;98.10
2282;DHT22;27486;48.77806476;9.16920056;2022-08-02T04:33:34;21.00;97.80
2282;DHT22;27486;48.77806476;9.16920056;2022-08-02T04:36:19;21.10;97.60
2282;DHT22;27486;48.77806476;9.16920056;2022-08-02T04:39:03;21.20;97.40
2282;DHT22;27486;48.77806476;9.16920056;2022-08-02T04:41:47;21.30;97.20
2282;DHT22;27486;48.77806476;9.16920056;2022-08-02T04:44:31;21.30;96.90
2282;DHT22;27486;48.77806476;9.16920056;2022-08-02T04:47:15;21.40;97.00
2282;DHT22;27486;48.77806476;9.16920056;2022-08-02T04:50:00;21.40;96.80
2282;DHT22;27486;48.77806476;9.16920056;2022-08-02T04:52:44;21.50;96.60
2282;DHT22;27486;48.77806476;9.16920056;2022-08-02T04:55:28;21.50;96.40
2282;DHT22;27486;48.77806476;9.16920056;2022-08-02T04:58:13;21.60;96.30
2282;DHT22;27486;48.77806476;9.16920056;2022-08-02T05:00:57;21.60;96.20
2282;DHT22;27486;48.77806476;9.16920056;2022-08-02T05:03:41;21.70;96.10
2282;DHT22;27486;48.77806476;9.16920056;2022-08-02T05:06:25;21.80;95.80
2282;DHT22;27486;48.77806476;9.16920056;2022-08-02T05:09:09;21.90;95.70
2282;DHT22;27486;48.77806476;9.16920056;2022-08-02T05:11:53;22.00;95.40
2282;DHT22;27486;48.77806476;9.16920056;2022-08-02T05:14:36;22.10;95.20
2282;DHT22;27486;48.77806476;9.16920056;2022-08-02T05:17:21;22.20;95.00
2282;DHT22;27486;48.77806476;9.16920056;2022-08-02T05:20:05;22.30;94.80
2282;DHT22;27486;48.77806476;9.16920056;2022-08-02T05:22:49;22.30;94.70
2282;DHT22;27486;48.77806476;9.16920056;2022-08-02T05:25:33;22.40;94.30
2282;DHT22;27486;48.77806476;9.16920056;2022-08-02T05:28:17;22.60;94.30
2282;DHT22;27486;48.77806476;9.16920056;2022-08-02T05:31:01;22.70;93.60
2282;DHT22;27486;48.77806476;9.16920056;2022-08-02T05:33:45;22.80;93.30
2282;DHT22;27486;48.77806476;9.16920056;2022-08-02T05:36:29;22.90;93.20
2282;DHT22;27486;48.77806476;9.16920056;2022-08-02T05:39:13;23.10;92.80
2282;DHT22;27486;48.77806476;9.16920056;2022-08-02T05:41:57;23.20;92.40
2282;DHT22;27486;48.77806476;9.16920056;2022-08-02T05:44:41;23.20;91.90
2282;DHT22;27486;48.77806476;9.16920056;2022-08-02T05:47:25;23.30;91.20
2282;DHT22;27486;48.77806476;9.16920056;2022-08-02T05:50:09;23.40;90.00
2282;DHT22;27486;48.77806476;9.16920056;2022-08-02T05:53:15;23.40;89.60
2282;DHT22;27486;48.77806476;9.16920056;2022-08-02T05:56:16;23.40;89.10
2282;DHT22;27486;48.77806476;9.16920056;2022-08-02T05:59:34;23.40;89.20
2282;DHT22;27486;48.77806476;9.16920056;2022-08-02T06:06:05;23.40;86.70
2282;DHT22;27486;48.77806476;9.16920056;2022-08-02T06:08:57;23.20;87.10
2282;DHT22;27486;48.77806476;9.16920056;2022-08-02T06:11:46;23.30;87.60
2282;DHT22;27486;48.77806476;9.16920056;2022-08-02T06:14:33;23.40;86.90
2282;DHT22;27486;48.77806476;9.16920056;2022-08-02T06:17:18;23.50;87.40
2282;DHT22;27486;48.77806476;9.16920056;2022-08-02T06:20:02;23.60;86.20
2282;DHT22;27486;48.77806476;9.16920056;2022-08-02T06:22:47;23.60;85.60
2282;DHT22;27486;48.77806476;9.16920056;2022-08-02T06:25:33;23.60;84.90
2282;DHT22;27486;48.77806476;9.16920056;2022-08-02T06:28:18;23.70;84.80
2282;DHT22;27486;48.77806476;9.16920056;2022-08-02T06:31:06;23.70;84.20
2282;DHT22;27486;48.77806476;9.16920056;2022-08-02T06:33:50;23.70;84.60
2282;DHT22;27486;48.77806476;9.16920056;2022-08-02T06:36:46;23.60;84.30
2282;DHT22;27486;48.77806476;9.16920056;2022-08-02T06:39:52;23.70;85.60
2282;DHT22;27486;48.77806476;9.16920056;2022-08-02T06:43:07;23.70;84.40
2282;DHT22;27486;48.77806476;9.16920056;2022-08-02T06:45:48;23.80;84.50
2282;DHT22;27486;48.77806476;9.16920056;2022-08-02T06:48:32;24.00;84.50
2282;DHT22;27486;48.77806476;9.16920056;2022-08-02T06:51:18;24.00;83.60
2282;DHT22;27486;48.77806476;9.16920056;2022-08-02T06:54:03;24.20;82.00
2282;DHT22;27486;48.77806476;9.16920056;2022-08-02T06:56:47;24.20;81.90
2282;DHT22;27486;48.77806476;9.16920056;2022-08-02T06:59:31;24.30;81.20
2282;DHT22;27486;48.77806476;9.16920056;2022-08-02T07:02:15;24.40;80.60
2282;DHT22;27486;48.77806476;9.16920056;2022-08-02T07:05:00;24.40;79.80
2282;DHT22;27486;48.77806476;9.16920056;2022-08-02T07:07:44;24.30;80.40
2282;DHT22;27486;48.77806476;9.16920056;2022-08-02T07:10:28;24.40;80.30
2282;DHT22;27486;48.77806476;9.16920056;2022-08-02T07:13:13;24.50;78.70
2282;DHT22;27486;48.77806476;9.16920056;2022-08-02T07:15:57;24.50;78.00
2282;DHT22;27486;48.77806476;9.16920056;2022-08-02T07:18:41;24.50;78.30
2282;DHT22;27486;48.77806476;9.16920056;2022-08-02T07:21:25;24.60;78.40
2282;DHT22;27486;48.77806476;9.16920056;2022-08-02T07:24:09;24.70;78.00
2282;DHT22;27486;48.77806476;9.16920056;2022-08-02T07:26:53;24.80;77.10
2282;DHT22;27486;48.77806476;9.16920056;2022-08-02T07:29:37;24.90;77.30
2282;DHT22;27486;48.77806476;9.16920056;2022-08-02T07:32:23;25.10;77.50
2282;DHT22;27486;48.77806476;9.16920056;2022-08-02T07:35:08;25.40;76.80
2282;DHT22;27486;48.77806476;9.16920056;2022-08-02T07:37:52;25.80;75.70
2282;DHT22;27486;48.77806476;9.16920056;2022-08-02T07:40:36;26.00;73.80
2282;DHT22;27486;48.77806476;9.16920056;2022-08-02T07:43:20;26.30;72.50
2282;DHT22;27486;48.77806476;9.16920056;2022-08-02T07:46:04;26.50;71.30
2282;DHT22;27486;48.77806476;9.16920056;2022-08-02T07:48:50;26.70;69.30
2282;DHT22;27486;48.77806476;9.16920056;2022-08-02T07:51:37;26.70;68.50
2282;DHT22;27486;48.77806476;9.16920056;2022-08-02T07:54:22;26.60;68.40
2282;DHT22;27486;48.77806476;9.16920056;2022-08-02T07:57:06;26.60;68.70
2282;DHT22;27486;48.77806476;9.16920056;2022-08-02T07:59:50;26.70;68.90
2282;DHT22;27486;48.77806476;9.16920056;2022-08-02T08:02:34;26.80;67.30
2282;DHT22;27486;48.77806476;9.16920056;2022-08-02T08:05:18;26.90;67.00
2282;DHT22;27486;48.77806476;9.16920056;2022-08-02T08:08:03;26.90;67.20
2282;DHT22;27486;48.77806476;9.16920056;2022-08-02T08:10:48;27.00;67.20
2282;DHT22;27486;48.77806476;9.16920056;2022-08-02T08:13:33;27.00;67.20
2282;DHT22;27486;48.77806476;9.16920056;2022-08-02T08:16:17;27.00;65.50
2282;DHT22;27486;48.77806476;9.16920056;2022-08-02T08:19:01;26.80;65.90
2282;DHT22;27486;48.77806476;9.16920056;2022-08-02T08:21:45;26.90;66.00
2282;DHT22;27486;48.77806476;9.16920056;2022-08-02T08:24:29;27.00;65.50
2282;DHT22;27486;48.77806476;9.16920056;2022-08-02T08:27:13;27.20;64.60
2282;DHT22;27486;48.77806476;9.16920056;2022-08-02T08:29:58;27.20;64.40
2282;DHT22;27486;48.77806476;9.16920056;2022-08-02T08:32:42;27.30;64.50
2282;DHT22;27486;48.77806476;9.16920056;2022-08-02T08:35:26;27.40;62.90
2282;DHT22;27486;48.77806476;9.16920056;2022-08-02T08:38:11;27.50;62.70
2282;DHT22;27486;48.77806476;9.16920056;2022-08-02T08:40:55;27.60;62.10
2282;DHT22;27486;48.77806476;9.16920056;2022-08-02T08:43:39;27.70;61.00
2282;DHT22;27486;48.77806476;9.16920056;2022-08-02T08:46:27;27.70;61.10
2282;DHT22;27486;48.77806476;9.16920056;2022-08-02T08:52:06;28.20;60.40
2282;DHT22;27486;48.77806476;9.16920056;2022-08-02T08:54:51;28.40;58.40
2282;DHT22;27486;48.77806476;9.16920056;2022-08-02T08:57:39;28.50;57.20
2282;DHT22;27486;48.77806476;9.16920056;2022-08-02T09:00:25;28.20;57.50
2282;DHT22;27486;48.77806476;9.16920056;2022-08-02T09:03:10;27.80;57.70
2282;DHT22;27486;48.77806476;9.16920056;2022-08-02T09:05:57;27.50;58.50
2282;DHT22;27486;48.77806476;9.16920056;2022-08-02T09:08:41;27.50;58.40
2282;DHT22;27486;48.77806476;9.16920056;2022-08-02T09:11:25;27.40;57.90
2282;DHT22;27486;48.77806476;9.16920056;2022-08-02T09:14:09;27.50;58.40
2282;DHT22;27486;48.77806476;9.16920056;2022-08-02T09:17:06;27.70;58.30
2282;DHT22;27486;48.77806476;9.16920056;2022-08-02T09:20:05;27.90;57.00
2282;DHT22;27486;48.77806476;9.16920056;2022-08-02T09:23:08;28.10;56.70
2282;DHT22;27486;48.77806476;9.16920056;2022-08-02T09:25:58;28.50;55.30
2282;DHT22;27486;48.77806476;9.16920056;2022-08-02T09:28:45;28.60;55.00
2282;DHT22;27486;48.77806476;9.16920056;2022-08-02T09:31:33;28.60;54.10
2282;DHT22;27486;48.77806476;9.16920056;2022-08-02T09:34:17;28.80;55.00
2282;DHT22;27486;48.77806476;9.16920056;2022-08-02T09:37:01;28.90;54.20
2282;DHT22;27486;48.77806476;9.16920056;2022-08-02T09:39:45;28.90;54.00
2282;DHT22;27486;48.77806476;9.16920056;2022-08-02T09:42:29;29.00;53.90
2282;DHT22;27486;48.77806476;9.16920056;2022-08-02T09:45:13;28.90;54.20
2282;DHT22;27486;48.77806476;9.16920056;2022-08-02T09:47:57;29.10;54.10
2282;DHT22;27486;48.77806476;9.16920056;2022-08-02T09:50:43;29.20;53.90
2282;DHT22;27486;48.77806476;9.16920056;2022-08-02T09:53:29;29.40;53.30
2282;DHT22;27486;48.77806476;9.16920056;2022-08-02T09:56:15;29.60;52.00
2282;DHT22;27486;48.77806476;9.16920056;2022-08-02T09:59:05;29.70;51.80
2282;DHT22;27486;48.77806476;9.16920056;2022-08-02T10:01:50;29.80;51.30
2282;DHT22;27486;48.77806476;9.16920056;2022-08-02T10:04:35;29.90;51.30
2282;DHT22;27486;48.77806476;9.16920056;2022-08-02T10:07:20;30.10;51.20
2282;DHT22;27486;48.77806476;9.16920056;2022-08-02T10:10:05;30.40;50.70
2282;DHT22;27486;48.77806476;9.16920056;2022-08-02T10:12:49;30.60;50.00
2282;DHT22;27486;48.77806476;9.16920056;2022-08-02T10:15:33;30.90;49.20
2282;DHT22;27486;48.77806476;9.16920056;2022-08-02T10:18:17;31.20;48.50
2282;DHT22;27486;48.77806476;9.16920056;2022-08-02T10:21:01;31.50;47.40
2282;DHT22;27486;48.77806476;9.16920056;2022-08-02T10:23:51;31.80;47.00
2282;DHT22;27486;48.77806476;9.16920056;2022-08-02T10:26:39;32.10;44.80
2282;DHT22;27486;48.77806476;9.16920056;2022-08-02T10:29:29;32.20;44.40
2282;DHT22;27486;48.77806476;9.16920056;2022-08-02T10:32:26;32.30;44.00
2282;DHT22;27486;48.77806476;9.16920056;2022-08-02T10:35:15;32.40;43.60
2282;DHT22;27486;48.77806476;9.16920056;2022-08-02T10:38:01;32.60;42.80
2282;DHT22;27486;48.77806476;9.16920056;2022-08-02T10:40:49;32.90;42.20
2282;DHT22;27486;48.77806476;9.16920056;2022-08-02T10:43:40;33.20;41.00
2282;DHT22;27486;48.77806476;9.16920056;2022-08-02T10:46:33;33.10;41.00
2282;DHT22;27486;48.77806476;9.16920056;2022-08-02T10:49:20;32.80;41.00
2282;DHT22;27486;48.77806476;9.16920056;2022-08-02T10:52:05;32.40;41.40
2282;DHT22;27486;48.77806476;9.16920056;2022-08-02T10:54:56;32.40;41.80
2282;DHT22;27486;48.77806476;9.16920056;2022-08-02T10:57:40;31.90;42.00
2282;DHT22;27486;48.77806476;9.16920056;2022-08-02T11:00:25;31.30;43.10
2282;DHT22;27486;48.77806476;9.16920056;2022-08-02T11:06:13;31.10;44.00
2282;DHT22;27486;48.77806476;9.16920056;2022-08-02T11:09:29;31.00;43.90
2282;DHT22;27486;48.77806476;9.16920056;2022-08-02T11:12:17;30.60;44.20
2282;DHT22;27486;48.77806476;9.16920056;2022-08-02T11:15:03;30.60;44.50
2282;DHT22;27486;48.77806476;9.16920056;2022-08-02T11:17:52;30.50;44.50
2282;DHT22;27486;48.77806476;9.16920056;2022-08-02T11:20:37;30.60;44.80
2282;DHT22;27486;48.77806476;9.16920056;2022-08-02T11:23:34;30.90;44.20
2282;DHT22;27486;48.77806476;9.16920056;2022-08-02T11:29:12;31.30;43.00
2282;DHT22;27486;48.77806476;9.16920056;2022-08-02T11:31:56;31.50;42.90
2282;DHT22;27486;48.77806476;9.16920056;2022-08-02T11:34:41;31.70;42.30
2282;DHT22;27486;48.77806476;9.16920056;2022-08-02T11:37:40;31.90;41.60
2282;DHT22;27486;48.77806476;9.16920056;2022-08-02T11:40:36;32.10;41.00
2282;DHT22;27486;48.77806476;9.16920056;2022-08-02T11:43:22;32.20;40.30
2282;DHT22;27486;48.77806476;9.16920056;2022-08-02T11:46:12;32.40;40.40
2282;DHT22;27486;48.77806476;9.16920056;2022-08-02T11:48:57;32.50;39.40
2282;DHT22;27486;48.77806476;9.16920056;2022-08-02T11:54:43;32.70;38.40
2282;DHT22;27486;48.77806476;9.16920056;2022-08-02T11:57:28;32.70;38.40
2282;DHT22;27486;48.77806476;9.16920056;2022-08-02T12:00:16;32.70;38.60
2282;DHT22;27486;48.77806476;9.16920056;2022-08-02T12:03:01;32.70;38.10
2282;DHT22;27486;48.77806476;9.16920056;2022-08-02T12:05:48;32.60;38.00
2282;DHT22;27486;48.77806476;9.16920056;2022-08-02T12:08:35;32.60;38.60
2282;DHT22;27486;48.77806476;9.16920056;2022-08-02T12:11:20;32.70;38.50
2282;DHT22;27486;48.77806476;9.16920056;2022-08-02T12:14:05;32.90;38.10
2282;DHT22;27486;48.77806476;9.16920056;2022-08-02T12:16:49;33.00;37.70
2282;DHT22;27486;48.77806476;9.16920056;2022-08-02T12:19:52;33.20;37.60
2282;DHT22;27486;48.77806476;9.16920056;2022-08-02T12:22:37;33.40;36.90
2282;DHT22;27486;48.77806476;9.16920056;2022-08-02T12:25:22;33.40;36.70
2282;DHT22;27486;48.77806476;9.16920056;2022-08-02T12:28:17;33.30;35.50
2282;DHT22;27486;48.77806476;9.16920056;2022-08-02T12:31:03;32.70;36.00
2282;DHT22;27486;48.77806476;9.16920056;2022-08-02T12:36:31;32.20;36.70
2282;DHT22;27486;48.77806476;9.16920056;2022-08-02T12:39:17;31.70;37.60
2282;DHT22;27486;48.77806476;9.16920056;2022-08-02T12:42:02;31.50;37.80
2282;DHT22;27486;48.77806476;9.16920056;2022-08-02T12:44:54;31.30;38.60
2282;DHT22;27486;48.77806476;9.16920056;2022-08-02T12:47:46;31.40;38.90
2282;DHT22;27486;48.77806476;9.16920056;2022-08-02T12:50:34;31.50;39.40
2282;DHT22;27486;48.77806476;9.16920056;2022-08-02T12:53:20;31.90;39.70
2282;DHT22;27486;48.77806476;9.16920056;2022-08-02T12:56:04;32.10;38.80
2282;DHT22;27486;48.77806476;9.16920056;2022-08-02T12:58:50;32.30;39.00
2282;DHT22;27486;48.77806476;9.16920056;2022-08-02T13:01:34;32.60;37.50
2282;DHT22;27486;48.77806476;9.16920056;2022-08-02T13:04:18;32.90;37.20
2282;DHT22;27486;48.77806476;9.16920056;2022-08-02T13:07:03;33.20;36.50
2282;DHT22;27486;48.77806476;9.16920056;2022-08-02T13:09:47;33.40;35.80
2282;DHT22;27486;48.77806476;9.16920056;2022-08-02T13:12:32;33.40;35.40
2282;DHT22;27486;48.77806476;9.16920056;2022-08-02T13:15:18;33.50;35.20
2282;DHT22;27486;48.77806476;9.16920056;2022-08-02T13:18:03;33.70;34.70
2282;DHT22;27486;48.77806476;9.16920056;2022-08-02T13:20:48;34.00;34.90
2282;DHT22;27486;48.77806476;9.16920056;2022-08-02T13:23:33;34.00;33.30
2282;DHT22;27486;48.77806476;9.16920056;2022-08-02T13:26:18;33.70;33.70
2282;DHT22;27486;48.77806476;9.16920056;2022-08-02T13:29:02;33.20;34.30
2282;DHT22;27486;48.77806476;9.16920056;2022-08-02T13:31:46;33.10;34.60
2282;DHT22;27486;48.77806476;9.16920056;2022-08-02T13:34:30;33.20;34.20
2282;DHT22;27486;48.77806476;9.16920056;2022-08-02T13:37:15;33.30;33.90
2282;DHT22;27486;48.77806476;9.16920056;2022-08-02T13:39:58;33.50;33.70
2282;DHT22;27486;48.77806476;9.16920056;2022-08-02T13:42:42;33.30;33.60
2282;DHT22;27486;48.77806476;9.16920056;2022-08-02T13:45:26;33.10;34.00
2282;DHT22;27486;48.77806476;9.16920056;2022-08-02T13:48:10;33.00;33.70
2282;DHT22;27486;48.77806476;9.16920056;2022-08-02T13:50:54;33.20;34.10
2282;DHT22;27486;48.77806476;9.16920056;2022-08-02T13:53:38;33.50;33.60
2282;DHT22;27486;48.77806476;9.16920056;2022-08-02T13:56:22;33.80;33.30
2282;DHT22;27486;48.77806476;9.16920056;2022-08-02T13:59:06;34.20;31.90
2282;DHT22;27486;48.77806476;9.16920056;2022-08-02T14:01:52;34.60;31.10
2282;DHT22;27486;48.77806476;9.16920056;2022-08-02T14:04:36;34.90;30.50
2282;DHT22;27486;48.77806476;9.16920056;2022-08-02T14:07:21;35.30;30.30
2282;DHT22;27486;48.77806476;9.16920056;2022-08-02T14:10:06;35.30;29.10
2282;DHT22;27486;48.77806476;9.16920056;2022-08-02T14:12:53;35.50;29.20
2282;DHT22;27486;48.77806476;9.16920056;2022-08-02T14:15:38;35.90;28.00
2282;DHT22;27486;48.77806476;9.16920056;2022-08-02T14:18:22;35.50;28.50
2282;DHT22;27486;48.77806476;9.16920056;2022-08-02T14:21:06;35.50;28.30
2282;DHT22;27486;48.77806476;9.16920056;2022-08-02T14:23:50;35.70;28.40
2282;DHT22;27486;48.77806476;9.16920056;2022-08-02T14:26:34;36.00;28.70
2282;DHT22;27486;48.77806476;9.16920056;2022-08-02T14:29:19;36.10;28.50
2282;DHT22;27486;48.77806476;9.16920056;2022-08-02T14:32:03;35.90;28.50
2282;DHT22;27486;48.77806476;9.16920056;2022-08-02T14:34:47;35.30;28.80
2282;DHT22;27486;48.77806476;9.16920056;2022-08-02T14:37:31;35.10;29.40
2282;DHT22;27486;48.77806476;9.16920056;2022-08-02T14:40:15;35.00;29.50
2282;DHT22;27486;48.77806476;9.16920056;2022-08-02T14:43:00;35.00;29.50
2282;DHT22;27486;48.77806476;9.16920056;2022-08-02T14:45:44;35.50;29.10
2282;DHT22;27486;48.77806476;9.16920056;2022-08-02T14:48:28;36.40;28.10
2282;DHT22;27486;48.77806476;9.16920056;2022-08-02T14:51:12;37.00;26.90
2282;DHT22;27486;48.77806476;9.16920056;2022-08-02T14:54:07;37.00;27.00
2282;DHT22;27486;48.77806476;9.16920056;2022-08-02T14:56:52;37.50;26.80
2282;DHT22;27486;48.77806476;9.16920056;2022-08-02T14:59:36;37.60;26.20
2282;DHT22;27486;48.77806476;9.16920056;2022-08-02T15:02:20;37.40;26.00
2282;DHT22;27486;48.77806476;9.16920056;2022-08-02T15:05:04;37.30;26.30
2282;DHT22;27486;48.77806476;9.16920056;2022-08-02T15:07:48;37.10;26.20
2282;DHT22;27486;48.77806476;9.16920056;2022-08-02T15:10:32;37.30;26.10
2282;DHT22;27486;48.77806476;9.16920056;2022-08-02T15:13:16;37.70;25.60
2282;DHT22;27486;48.77806476;9.16920056;2022-08-02T15:16:00;38.30;25.30
2282;DHT22;27486;48.77806476;9.16920056;2022-08-02T15:18:45;39.30;24.60
2282;DHT22;27486;48.77806476;9.16920056;2022-08-02T15:21:29;40.40;23.90
2282;DHT22;27486;48.77806476;9.16920056;2022-08-02T15:24:14;41.40;22.70
2282;DHT22;27486;48.77806476;9.16920056;2022-08-02T15:26:58;42.20;21.70
2282;DHT22;27486;48.77806476;9.16920056;2022-08-02T15:29:43;42.60;20.80
2282;DHT22;27486;48.77806476;9.16920056;2022-08-02T15:32:28;42.80;20.30
2282;DHT22;27486;48.77806476;9.16920056;2022-08-02T15:35:11;42.30;20.00
2282;DHT22;27486;48.77806476;9.16920056;2022-08-02T15:37:56;41.30;20.90
2282;DHT22;27486;48.77806476;9.16920056;2022-08-02T15:40:40;40.50;21.40
2282;DHT22;27486;48.77806476;9.16920056;2022-08-02T15:43:26;39.80;22.30